Time;durP1;ratioP1;P1;durP2;ratioP2;P2;SDS_P1;SDS_P2;PMS_P1;PMS_P2;Temp;Humidity;BMP_temperature;BMP_pressure;BME280_temperature;BME280_humidity;BME280_pressure;Samples;Min_cycle;Max_cycle;Signal;HPM_P1;HPM_P2
2024/03/06 00:01:06;;;;;;;24.50;11.80;;;;;;;5.80;79.97;99133.13;105216;1254;97969;-79
2024/03/06 00:03:48;;;;;;;25.50;12.30;;;;;;;5.77;79.98;99135.00;105705;1257;97819;-78
2024/03/06 00:06:16;;;;;;;27.70;13.10;;;;;;;5.73;80.00;99133.10;105373;1254;109459;-80
2024/03/06 00:08:44;;;;;;;30.00;15.00;;;;;;;5.71;79.86;99135.83;105223;1275;97881;-79
2024/03/06 00:11:12;;;;;;;25.80;14.40;;;;;;;5.71;80.03;99133.71;105482;1257;107659;-79
2024/03/06 00:13:40;;;;;;;29.20;16.80;;;;;;;5.70;79.99;99133.45;105565;1257;97419;-79
2024/03/06 00:16:08;;;;;;;26.60;15.00;;;;;;;5.70;79.94;99136.08;105654;1254;97528;-79
2024/03/06 00:18:36;;;;;;;24.50;11.80;;;;;;;5.70;80.09;99138.20;105678;1257;109666;-79
2024/03/06 00:21:04;;;;;;;25.90;11.80;;;;;;;5.71;80.04;99144.82;105514;1257;97351;-79
2024/03/06 00:23:32;;;;;;;24.00;12.40;;;;;;;5.72;79.94;99148.11;105291;1257;106560;-80
2024/03/06 00:26:00;;;;;;;23.90;11.50;;;;;;;5.74;80.06;99145.39;105292;1256;96679;-79
2024/03/06 00:28:28;;;;;;;22.70;11.20;;;;;;;5.75;80.34;99146.55;105317;1256;96600;-79
2024/03/06 00:30:56;;;;;;;24.10;11.60;;;;;;;5.79;80.17;99149.18;105530;1254;108444;-79
2024/03/06 00:33:24;;;;;;;26.70;13.10;;;;;;;5.79;80.05;99147.24;105537;1254;96618;-79
2024/03/06 00:35:52;;;;;;;27.30;16.90;;;;;;;5.75;79.90;99143.88;105369;1258;107795;-79
2024/03/06 00:38:20;;;;;;;28.40;16.50;;;;;;;5.74;80.01;99146.63;105419;1256;96673;-80
2024/03/06 00:40:48;;;;;;;25.50;14.80;;;;;;;5.73;79.96;99145.27;105337;1260;97095;-79
2024/03/06 00:43:16;;;;;;;26.90;13.20;;;;;;;5.74;80.09;99143.64;105602;1257;110232;-80
2024/03/06 00:45:44;;;;;;;25.00;12.60;;;;;;;5.77;80.07;99147.35;105497;1264;96649;-80
2024/03/06 00:48:11;;;;;;;24.90;12.10;;;;;;;5.77;79.90;99146.30;105404;1256;107668;-79
2024/03/06 00:50:39;;;;;;;24.50;13.20;;;;;;;5.76;80.02;99147.90;105403;1258;97608;-79
2024/03/06 00:53:07;;;;;;;23.10;11.10;;;;;;;5.77;80.18;99152.29;105550;1256;97515;-79
2024/03/06 00:55:35;;;;;;;25.10;11.50;;;;;;;5.77;80.01;99151.04;105535;1256;109875;-80
2024/03/06 00:58:03;;;;;;;27.40;12.40;;;;;;;5.75;80.07;99152.02;105452;1257;96619;-79
2024/03/06 01:00:31;;;;;;;26.10;15.10;;;;;;;5.73;80.01;99151.05;105530;1254;106815;-79
2024/03/06 01:02:59;;;;;;;24.00;13.90;;;;;;;5.72;80.22;99147.22;105823;1256;96605;-80
2024/03/06 01:05:27;;;;;;;26.60;14.40;;;;;;;5.70;80.07;99147.37;105500;1257;96647;-79
2024/03/06 01:07:56;;;;;;;24.90;13.70;;;;;;;5.68;80.27;99151.85;105409;1257;110230;-79
2024/03/06 01:10:25;;;;;;;28.00;13.30;;;;;;;5.69;80.24;99153.06;105540;1267;97435;-80
2024/03/06 01:12:52;;;;;;;23.00;11.40;;;;;;;5.68;80.25;99153.27;105408;1258;107294;-81
2024/03/06 01:15:20;;;;;;;27.80;12.90;;;;;;;5.68;80.06;99153.61;105364;1257;97092;-79
2024/03/06 01:17:48;;;;;;;24.10;12.10;;;;;;;5.67;80.15;99158.23;105282;1264;96661;-80
2024/03/06 01:20:16;;;;;;;24.10;12.10;;;;;;;5.65;80.20;99158.83;105497;1253;110068;-79
2024/03/06 01:22:46;;;;;;;25.30;13.50;;;;;;;5.66;80.20;99163.55;105404;1258;96625;-79
2024/03/06 01:25:14;;;;;;;27.60;15.00;;;;;;;5.66;79.96;99161.60;105565;1257;107541;-80
2024/03/06 01:27:42;;;;;;;29.70;14.50;;;;;;;5.68;80.25;99164.20;105474;1254;96601;-80
2024/03/06 01:30:10;;;;;;;27.40;15.40;;;;;;;5.69;80.16;99164.83;105462;1256;96536;-79
2024/03/06 01:32:38;;;;;;;27.10;13.50;;;;;;;5.70;80.18;99161.28;105267;1267;110550;-79
2024/03/06 01:35:06;;;;;;;26.50;12.90;;;;;;;5.70;80.28;99166.20;105631;1253;96604;-79
2024/03/06 01:37:34;;;;;;;25.20;12.20;;;;;;;5.70;80.18;99164.61;105576;1253;107578;-79
2024/03/06 01:40:04;;;;;;;26.90;12.50;;;;;;;5.71;80.35;99161.90;105364;1257;96596;-80
2024/03/06 01:42:32;;;;;;;25.30;13.20;;;;;;;5.72;80.15;99163.59;105539;1256;97911;-79
2024/03/06 01:45:00;;;;;;;25.20;12.10;;;;;;;5.72;80.30;99161.65;105676;1256;109434;-80
2024/03/06 01:47:28;;;;;;;25.50;11.80;;;;;;;5.72;80.25;99160.78;105526;1256;97545;-79
2024/03/06 01:49:56;;;;;;;25.00;11.90;;;;;;;5.71;80.24;99162.78;105428;1257;108095;-80
2024/03/06 01:52:24;;;;;;;22.80;11.10;;;;;;;5.69;80.22;99164.46;105724;1257;96619;-80
2024/03/06 01:54:52;;;;;;;26.70;15.80;;;;;;;5.67;80.24;99166.48;105798;1254;96504;-79
2024/03/06 01:57:20;;;;;;;34.50;17.40;;;;;;;5.64;80.16;99164.53;105523;1254;109944;-80
2024/03/06 01:59:48;;;;;;;31.50;14.10;;;;;;;5.60;80.24;99164.02;105611;1256;96689;-79
2024/03/06 02:02:16;;;;;;;27.30;12.20;;;;;;;5.57;80.25;99159.81;105823;1252;106645;-79
2024/03/06 02:04:44;;;;;;;29.60;13.20;;;;;;;5.56;80.23;99164.39;105542;1256;97525;-80
2024/03/06 02:07:14;;;;;;;27.90;12.80;;;;;;;5.54;80.26;99161.35;105502;1257;97947;-79
2024/03/06 02:09:43;;;;;;;29.60;13.70;;;;;;;5.53;80.21;99161.95;105647;1256;109968;-79
2024/03/06 02:12:11;;;;;;;26.40;13.00;;;;;;;5.47;80.23;99159.56;105420;1257;97599;-79
2024/03/06 02:14:39;;;;;;;30.70;14.20;;;;;;;5.44;80.18;99159.73;105471;1257;107552;-79
2024/03/06 02:17:07;;;;;;;31.50;14.20;;;;;;;5.42;80.21;99157.70;105334;1253;96506;-79
2024/03/06 02:19:42;;;;;;;29.30;14.10;;;;;;;5.42;80.11;99158.79;105427;1253;96536;-79
2024/03/06 02:22:11;;;;;;;36.20;17.70;;;;;;;5.42;80.22;99159.14;105626;1254;109635;-78
2024/03/06 02:24:48;;;;;;;32.70;13.40;;;;;;;5.43;80.32;99161.52;106069;1253;97463;-80
2024/03/06 02:27:16;;;;;;;29.60;13.50;;;;;;;5.43;80.27;99159.08;105758;1254;106646;-79
2024/03/06 02:29:44;;;;;;;27.60;12.50;;;;;;;5.39;80.34;99159.45;105420;1254;96606;-80
2024/03/06 02:32:13;;;;;;;25.90;12.30;;;;;;;5.38;80.35;99160.36;105522;1253;96574;-79
2024/03/06 02:34:41;;;;;;;31.50;13.60;;;;;;;5.37;80.31;99159.20;105509;1256;110046;-79
2024/03/06 02:37:10;;;;;;;32.50;14.10;;;;;;;5.35;80.31;99160.36;105458;1256;96616;-79
2024/03/06 02:39:37;;;;;;;33.00;14.30;;;;;;;5.32;80.31;99160.14;105640;1256;106709;-79
2024/03/06 02:42:06;;;;;;;40.50;16.70;;;;;;;5.31;80.33;99162.45;105244;1256;96615;-79
2024/03/06 02:44:34;;;;;;;32.80;16.20;;;;;;;5.32;80.36;99162.09;105267;1254;96683;-80
2024/03/06 02:47:03;;;;;;;40.10;16.90;;;;;;;5.30;80.43;99162.15;105426;1253;109794;-80
2024/03/06 02:49:31;;;;;;;34.40;14.70;;;;;;;5.30;80.52;99160.39;105603;1256;96590;-79
2024/03/06 02:52:00;;;;;;;34.10;14.30;;;;;;;5.30;80.58;99158.86;105602;1254;107320;-79
2024/03/06 02:54:29;;;;;;;30.70;14.10;;;;;;;5.26;80.45;99157.63;105625;1254;96563;-79
2024/03/06 02:56:57;;;;;;;37.30;14.50;;;;;;;5.25;80.40;99159.59;105320;1256;96516;-79
2024/03/06 02:59:24;;;;;;;32.20;13.30;;;;;;;5.24;80.40;99157.23;105535;1256;109627;-79
2024/03/06 03:01:52;;;;;;;27.60;13.40;;;;;;;5.23;80.34;99157.59;105109;1257;96600;-79
2024/03/06 03:04:20;;;;;;;34.20;17.20;;;;;;;5.24;80.65;99155.63;105466;1257;107198;-78
2024/03/06 03:06:48;;;;;;;29.70;12.90;;;;;;;5.26;80.54;99154.44;105291;1257;96632;-80
2024/03/06 03:09:16;;;;;;;30.80;15.80;;;;;;;5.27;80.49;99155.29;105673;1254;96529;-79
2024/03/06 03:11:44;;;;;;;29.50;13.90;;;;;;;5.28;80.55;99153.84;105455;1254;111579;-79
2024/03/06 03:14:12;;;;;;;29.80;13.80;;;;;;;5.28;80.61;99154.71;105269;1253;96684;-80
2024/03/06 03:16:41;;;;;;;32.80;14.40;;;;;;;5.28;80.68;99154.53;105305;1256;107669;-80
2024/03/06 03:19:09;;;;;;;29.20;12.80;;;;;;;5.28;80.79;99157.17;105388;1256;96590;-79
2024/03/06 03:21:37;;;;;;;24.40;12.60;;;;;;;5.26;80.52;99156.95;105683;1256;96506;-79
2024/03/06 03:24:05;;;;;;;30.90;13.00;;;;;;;5.23;80.68;99156.38;105493;1257;108328;-79
2024/03/06 03:26:33;;;;;;;26.60;13.90;;;;;;;5.19;80.53;99155.14;105524;1256;97807;-79
2024/03/06 03:29:01;;;;;;;26.40;12.20;;;;;;;5.19;80.56;99152.34;105691;1257;106005;-79
2024/03/06 03:31:29;;;;;;;32.90;16.50;;;;;;;5.18;80.56;99150.81;105758;1257;96654;-79
2024/03/06 03:33:57;;;;;;;32.50;15.60;;;;;;;5.17;80.65;99151.01;105376;1257;96574;-80
2024/03/06 03:36:24;;;;;;;30.10;14.20;;;;;;;5.18;80.56;99156.77;105580;1254;109925;-80
2024/03/06 03:38:52;;;;;;;23.70;11.80;;;;;;;5.15;80.56;99153.93;105423;1257;96569;-79
2024/03/06 03:41:20;;;;;;;30.70;14.30;;;;;;;5.13;80.58;99157.54;105823;1256;107706;-79
2024/03/06 03:43:49;;;;;;;26.90;12.90;;;;;;;5.11;80.71;99159.58;105483;1256;97534;-79
2024/03/06 03:46:17;;;;;;;24.90;12.20;;;;;;;5.10;80.69;99160.15;105635;1253;97568;-79
2024/03/06 03:48:44;;;;;;;29.60;12.80;;;;;;;5.08;80.48;99161.66;105522;1256;109906;-78
2024/03/06 03:51:12;;;;;;;30.20;13.20;;;;;;;5.07;80.71;99162.58;105660;1256;96491;-79
2024/03/06 03:53:40;;;;;;;24.80;11.90;;;;;;;5.09;80.82;99166.59;105584;1256;107668;-79
2024/03/06 03:56:08;;;;;;;40.00;17.20;;;;;;;5.09;80.80;99164.23;105616;1256;97919;-79
2024/03/06 03:58:37;;;;;;;44.00;20.90;;;;;;;5.09;80.71;99166.72;105714;1254;96536;-79
2024/03/06 04:01:05;;;;;;;33.10;15.60;;;;;;;5.09;80.75;99166.88;105746;1253;109921;-79
2024/03/06 04:03:33;;;;;;;24.60;12.60;;;;;;;5.10;80.77;99166.16;105571;1261;96507;-79
2024/03/06 04:06:01;;;;;;;27.20;11.60;;;;;;;5.10;80.75;99164.55;105580;1267;107805;-79
2024/03/06 04:08:29;;;;;;;28.70;11.50;;;;;;;5.09;80.83;99167.59;105592;1259;96616;-79
2024/03/06 04:10:57;;;;;;;25.80;11.00;;;;;;;5.09;80.81;99166.00;105653;1253;96539;-80
2024/03/06 04:13:25;;;;;;;22.30;10.50;;;;;;;5.09;80.86;99167.95;105656;1257;109090;-79
2024/03/06 04:15:52;;;;;;;20.20;10.90;;;;;;;5.09;80.73;99170.09;105638;1256;96952;-79
2024/03/06 04:18:20;;;;;;;22.10;10.80;;;;;;;5.08;80.79;99170.84;105596;1264;108435;-79
2024/03/06 04:20:48;;;;;;;25.50;13.20;;;;;;;5.06;80.71;99171.06;105397;1257;96639;-79
2024/03/06 04:23:16;;;;;;;29.70;13.90;;;;;;;5.04;80.71;99168.18;105342;1256;96603;-80
2024/03/06 04:25:44;;;;;;;25.30;13.20;;;;;;;5.03;80.90;99175.08;105182;1257;110019;-79
2024/03/06 04:28:12;;;;;;;24.70;10.60;;;;;;;5.03;80.82;99176.86;105463;1256;96702;-79
2024/03/06 04:30:40;;;;;;;24.40;10.10;;;;;;;5.00;80.86;99176.11;105307;1254;107030;-79
2024/03/06 04:33:08;;;;;;;22.80;10.20;;;;;;;5.00;80.73;99178.39;105515;1256;97791;-76
2024/03/06 04:35:37;;;;;;;24.80;11.40;;;;;;;4.99;80.89;99181.07;105479;1253;96520;-79
2024/03/06 04:38:06;;;;;;;19.50;9.90;;;;;;;4.98;80.90;99181.83;105177;1254;109967;-78
2024/03/06 04:40:34;;;;;;;21.50;10.30;;;;;;;4.97;81.01;99183.98;105613;1253;96587;-79
2024/03/06 04:43:02;;;;;;;23.00;11.30;;;;;;;4.97;80.80;99187.31;105227;1254;108307;-79
2024/03/06 04:45:30;;;;;;;30.80;14.50;;;;;;;4.95;80.93;99183.89;105395;1253;97071;-80
2024/03/06 04:47:58;;;;;;;26.80;14.30;;;;;;;4.94;80.95;99185.19;105616;1256;96541;-79
2024/03/06 04:50:27;;;;;;;25.20;12.40;;;;;;;4.94;81.05;99182.39;105314;1254;109743;-77
2024/03/06 04:52:56;;;;;;;25.70;11.80;;;;;;;4.94;81.07;99183.40;105251;1256;97818;-80
2024/03/06 04:55:25;;;;;;;22.30;12.20;;;;;;;4.96;81.01;99183.70;105560;1254;107230;-76
2024/03/06 04:57:54;;;;;;;25.70;12.00;;;;;;;4.96;80.98;99184.04;105513;1254;97426;-76
2024/03/06 05:00:22;;;;;;;28.30;12.90;;;;;;;4.95;81.07;99184.25;105322;1257;97416;-78
2024/03/06 05:02:50;;;;;;;24.80;12.40;;;;;;;4.96;81.07;99186.33;105806;1256;110271;-78
2024/03/06 05:05:36;;;;;;;28.50;14.80;;;;;;;4.98;81.09;99188.16;105544;1256;96575;-72
2024/03/06 05:08:21;;;;;;;34.10;17.60;;;;;;;4.99;81.02;99188.46;105552;1256;107623;-80
2024/03/06 05:11:07;;;;;;;31.20;15.40;;;;;;;4.97;81.13;99190.14;105637;1254;97502;-72
2024/03/06 05:13:52;;;;;;;26.90;13.30;;;;;;;4.96;81.16;99190.18;108695;1253;94454;-71
2024/03/06 05:16:37;;;;;;;24.30;11.00;;;;;;;4.95;81.09;99192.67;107597;1253;108460;-73
2024/03/06 05:19:23;;;;;;;24.20;11.10;;;;;;;4.93;80.97;99191.54;105413;1258;97846;-72
2024/03/06 05:22:08;;;;;;;25.90;11.00;;;;;;;4.94;81.18;99194.69;105454;1256;107797;-72
2024/03/06 05:24:54;;;;;;;22.20;11.50;;;;;;;4.93;81.15;99193.63;105447;1257;96699;-72
2024/03/06 05:27:40;;;;;;;25.10;13.30;;;;;;;4.94;81.26;99191.16;108731;1252;94514;-73
2024/03/06 05:30:25;;;;;;;26.40;12.50;;;;;;;4.96;81.17;99190.02;106509;1253;109403;-72
2024/03/06 05:33:10;;;;;;;25.40;12.90;;;;;;;4.95;81.15;99197.94;105502;1257;96599;-72
2024/03/06 05:35:56;;;;;;;31.80;16.60;;;;;;;4.94;81.11;99199.06;105357;1257;107165;-72
2024/03/06 05:38:41;;;;;;;30.70;15.60;;;;;;;4.91;81.22;99202.35;105153;1256;97425;-72
2024/03/06 05:41:26;;;;;;;28.20;13.20;;;;;;;4.87;81.08;99203.41;105183;1258;96657;-72
2024/03/06 05:44:12;;;;;;;33.90;14.80;;;;;;;4.85;81.12;99205.80;105186;1257;109923;-72
2024/03/06 05:47:02;;;;;;;30.90;13.80;;;;;;;4.83;81.18;99206.25;105192;1254;97092;-72
2024/03/06 05:49:47;;;;;;;28.10;13.40;;;;;;;4.81;81.21;99207.92;105179;1270;107208;-73
2024/03/06 05:52:34;;;;;;;30.20;13.90;;;;;;;4.77;81.24;99209.68;105248;1257;97531;-72
2024/03/06 05:55:18;;;;;;;29.90;15.40;;;;;;;4.75;81.34;99208.04;105346;1253;96578;-72
2024/03/06 05:58:05;;;;;;;33.40;14.80;;;;;;;4.73;81.29;99213.38;105242;1256;109921;-71
2024/03/06 06:00:39;;;;;;;32.70;13.90;;;;;;;4.72;81.50;99211.50;105440;1269;96639;-72
2024/03/06 06:03:11;;;;;;;32.00;14.40;;;;;;;4.72;81.61;99211.69;107817;1253;107676;-73
2024/03/06 06:05:40;;;;;;;31.20;15.30;;;;;;;4.71;81.38;99215.60;105624;1268;97864;-72
2024/03/06 06:08:08;;;;;;;30.40;15.50;;;;;;;4.71;81.48;99213.29;107790;1253;96527;-74
2024/03/06 06:10:36;;;;;;;36.40;14.60;;;;;;;4.71;81.55;99212.06;105633;1256;109935;-72
2024/03/06 06:13:04;;;;;;;35.10;15.70;;;;;;;4.73;81.59;99214.44;105609;1257;96540;-73
2024/03/06 06:15:33;;;;;;;36.10;16.60;;;;;;;4.72;81.39;99213.39;105478;1254;106118;-75
2024/03/06 06:18:00;;;;;;;41.80;18.60;;;;;;;4.72;81.53;99218.71;105281;1254;96591;-72
2024/03/06 06:20:30;;;;;;;32.00;15.20;;;;;;;4.71;81.53;99215.95;105347;1256;97816;-75
2024/03/06 06:22:58;;;;;;;35.50;16.10;;;;;;;4.68;81.39;99213.60;105340;1257;109892;-73
2024/03/06 06:25:26;;;;;;;36.40;16.00;;;;;;;4.66;81.60;99218.28;105508;1257;97915;-72
2024/03/06 06:27:54;;;;;;;36.60;16.30;;;;;;;4.61;81.48;99218.13;105277;1253;106283;-74
2024/03/06 06:30:22;;;;;;;35.50;15.40;;;;;;;4.56;81.48;99220.10;105090;1257;96600;-71
2024/03/06 06:32:49;;;;;;;32.10;15.70;;;;;;;4.53;81.66;99220.42;105350;1253;96638;-73
2024/03/06 06:35:17;;;;;;;32.70;16.20;;;;;;;4.55;81.68;99221.79;105449;1253;110072;-73
2024/03/06 06:37:46;;;;;;;49.30;20.50;;;;;;;4.52;81.63;99221.19;105245;1257;96586;-72
2024/03/06 06:40:14;;;;;;;60.80;27.80;;;;;;;4.50;81.73;99221.29;105734;1253;107347;-73
2024/03/06 06:42:49;;;;;;;32.90;15.70;;;;;;;4.48;81.65;99224.70;105348;1256;96702;-74
2024/03/06 06:45:21;;;;;;;32.00;14.50;;;;;;;4.47;81.71;99222.83;105311;1258;97748;-73
2024/03/06 06:47:51;;;;;;;31.20;15.50;;;;;;;4.44;81.85;99221.55;105442;1257;108663;-73
2024/03/06 06:50:22;;;;;;;30.20;15.00;;;;;;;4.41;81.79;99223.59;105397;1257;97937;-72
2024/03/06 06:52:50;;;;;;;35.20;17.80;;;;;;;4.42;81.84;99224.27;105341;1253;107736;-73
2024/03/06 06:55:22;;;;;;;30.10;14.70;;;;;;;4.40;81.87;99228.40;105454;1257;96625;-73
2024/03/06 06:57:51;;;;;;;29.30;14.80;;;;;;;4.39;81.87;99227.37;105400;1254;96543;-72
2024/03/06 07:00:21;;;;;;;30.70;14.20;;;;;;;4.40;81.92;99229.10;105614;1253;108205;-75
2024/03/06 07:02:49;;;;;;;31.20;14.00;;;;;;;4.40;81.86;99231.20;105685;1256;96589;-74
2024/03/06 07:05:17;;;;;;;29.90;15.30;;;;;;;4.41;81.81;99230.48;105591;1254;107677;-73
2024/03/06 07:07:46;;;;;;;33.40;15.40;;;;;;;4.41;81.80;99233.11;105657;1254;96564;-72
2024/03/06 07:10:15;;;;;;;30.00;16.40;;;;;;;4.39;82.07;99235.98;105560;1256;96725;-73
2024/03/06 07:12:43;;;;;;;38.20;17.50;;;;;;;4.39;82.08;99234.95;105637;1256;108437;-73
2024/03/06 07:15:11;;;;;;;37.70;17.70;;;;;;;4.37;81.92;99240.46;105613;1256;96594;-73
2024/03/06 07:17:39;;;;;;;33.20;16.20;;;;;;;4.36;81.99;99236.98;105330;1254;107073;-76
2024/03/06 07:20:08;;;;;;;38.60;17.50;;;;;;;4.37;82.10;99242.60;105188;1256;96514;-73
2024/03/06 07:22:36;;;;;;;32.00;15.90;;;;;;;4.38;82.17;99242.71;105425;1256;97921;-73
2024/03/06 07:25:05;;;;;;;36.80;17.00;;;;;;;4.38;81.94;99246.41;105450;1253;109971;-73
2024/03/06 07:27:33;;;;;;;34.30;15.20;;;;;;;4.38;82.04;99246.20;105432;1253;96589;-73
2024/03/06 07:30:01;;;;;;;30.30;16.10;;;;;;;4.37;82.06;99245.20;105255;1256;106126;-72
2024/03/06 07:32:29;;;;;;;39.10;17.70;;;;;;;4.38;82.24;99243.22;105411;1254;96613;-73
2024/03/06 07:34:58;;;;;;;39.60;19.00;;;;;;;4.38;81.99;99243.24;105475;1253;96469;-72
2024/03/06 07:37:26;;;;;;;33.50;16.30;;;;;;;4.36;82.15;99245.23;105508;1256;109367;-73
2024/03/06 07:39:54;;;;;;;37.80;16.80;;;;;;;4.36;82.18;99241.21;105407;1255;96540;-76
2024/03/06 07:42:22;;;;;;;30.20;16.00;;;;;;;4.37;82.22;99246.41;105304;1252;107256;-72
2024/03/06 07:44:50;;;;;;;33.20;16.70;;;;;;;4.38;82.19;99245.36;105097;1253;97505;-79
2024/03/06 07:47:18;;;;;;;34.00;15.20;;;;;;;4.36;82.08;99246.99;105532;1254;96595;-73
2024/03/06 07:49:46;;;;;;;25.50;11.90;;;;;;;4.34;82.10;99251.66;105395;1254;108671;-72
2024/03/06 07:52:14;;;;;;;31.30;14.30;;;;;;;4.32;82.06;99253.86;105277;1259;96643;-72
2024/03/06 07:54:41;;;;;;;28.40;12.20;;;;;;;4.27;82.33;99255.45;105271;1257;97847;-72
2024/03/06 07:57:09;;;;;;;29.90;13.50;;;;;;;4.27;82.22;99257.60;105349;1254;97077;-72
2024/03/06 07:59:36;;;;;;;27.30;12.90;;;;;;;4.27;82.19;99262.87;105642;1260;96507;-73
2024/03/06 08:02:04;;;;;;;30.30;12.20;;;;;;;4.27;82.23;99262.15;105262;1257;96689;-72
2024/03/06 08:04:31;;;;;;;27.80;13.30;;;;;;;4.25;82.17;99262.26;105241;1257;96609;-73
2024/03/06 08:06:58;;;;;;;30.40;15.00;;;;;;;4.19;82.30;99265.64;105027;1258;97314;-74
2024/03/06 08:09:28;;;;;;;33.00;14.50;;;;;;;4.17;82.40;99266.07;105342;1258;97041;-72
2024/03/06 08:11:55;;;;;;;31.40;14.30;;;;;;;4.18;82.41;99268.50;105418;1257;97877;-73
2024/03/06 08:14:23;;;;;;;27.00;12.40;;;;;;;4.16;82.32;99266.48;105356;1257;96668;-77
2024/03/06 08:16:50;;;;;;;28.70;12.90;;;;;;;4.18;82.39;99271.14;105634;1257;98094;-73
2024/03/06 08:19:17;;;;;;;30.00;14.40;;;;;;;4.20;82.51;99272.29;105350;1254;96641;-73
2024/03/06 08:21:44;;;;;;;36.20;16.20;;;;;;;4.20;82.38;99273.67;105429;1254;96687;-72
2024/03/06 08:24:11;;;;;;;30.00;14.10;;;;;;;4.22;82.41;99276.06;105358;1254;97290;-71
2024/03/06 08:26:38;;;;;;;35.20;15.70;;;;;;;4.25;82.47;99271.73;105390;1254;98093;-77
2024/03/06 08:29:05;;;;;;;31.00;16.30;;;;;;;4.27;82.44;99277.08;105431;1256;97932;-74
2024/03/06 08:31:33;;;;;;;31.80;16.40;;;;;;;4.28;82.43;99279.14;105394;1258;96617;-73
2024/03/06 08:34:00;;;;;;;37.50;18.20;;;;;;;4.27;82.44;99281.45;105215;1252;97914;-72
2024/03/06 08:36:27;;;;;;;42.60;20.80;;;;;;;4.26;82.31;99278.17;105304;1259;98475;-73
2024/03/06 08:38:54;;;;;;;40.00;21.10;;;;;;;4.26;82.44;99280.11;105441;1257;97918;-73
2024/03/06 08:41:22;;;;;;;41.70;21.00;;;;;;;4.26;82.45;99279.55;105230;1259;97545;-78
2024/03/06 08:43:49;;;;;;;41.00;20.40;;;;;;;4.25;82.53;99283.82;105167;1258;96636;-77
2024/03/06 08:46:16;;;;;;;33.70;14.90;;;;;;;4.25;82.49;99284.36;105337;1258;97817;-73
2024/03/06 08:48:42;;;;;;;33.70;17.20;;;;;;;4.26;82.39;99285.04;105237;1269;96565;-76
2024/03/06 08:51:10;;;;;;;35.10;16.80;;;;;;;4.25;82.44;99287.17;105621;1257;96639;-74
2024/03/06 08:53:38;;;;;;;29.60;12.70;;;;;;;4.23;82.34;99289.70;105426;1258;96753;-72
2024/03/06 08:56:06;;;;;;;24.70;12.40;;;;;;;4.19;82.38;99288.66;105566;1258;97918;-73
2024/03/06 08:58:33;;;;;;;25.60;14.20;;;;;;;4.19;82.47;99287.62;105414;1257;97543;-73
2024/03/06 09:01:00;;;;;;;32.00;18.40;;;;;;;4.21;82.57;99286.46;105533;1257;97608;-71
2024/03/06 09:03:27;;;;;;;27.30;14.60;;;;;;;4.25;82.78;99292.27;105453;1257;96677;-73
2024/03/06 09:05:54;;;;;;;27.00;12.70;;;;;;;4.27;82.53;99289.55;105229;1258;96660;-72
2024/03/06 09:08:21;;;;;;;25.80;12.40;;;;;;;4.27;82.51;99287.77;105315;1253;97221;-79
2024/03/06 09:10:48;;;;;;;30.50;13.40;;;;;;;4.32;82.65;99289.66;105348;1259;96705;-72
2024/03/06 09:13:15;;;;;;;23.30;11.90;;;;;;;4.35;82.59;99290.79;105415;1259;96655;-72
2024/03/06 09:15:42;;;;;;;29.10;14.70;;;;;;;4.36;82.66;99292.14;105392;1254;108231;-73
2024/03/06 09:18:09;;;;;;;23.90;11.00;;;;;;;4.36;82.68;99292.65;105157;1254;96692;-72
2024/03/06 09:20:36;;;;;;;20.50;10.70;;;;;;;4.36;82.67;99293.71;105400;1257;96660;-73
2024/03/06 09:23:03;;;;;;;23.90;11.30;;;;;;;4.35;82.49;99292.36;105187;1260;97835;-73
2024/03/06 09:25:30;;;;;;;23.70;10.60;;;;;;;4.36;82.63;99290.73;105461;1253;96688;-73
2024/03/06 09:27:57;;;;;;;22.20;9.90;;;;;;;4.36;82.76;99287.04;105480;1257;97101;-73
2024/03/06 09:30:24;;;;;;;24.60;10.30;;;;;;;4.38;82.71;99291.36;105336;1257;96671;-73
2024/03/06 09:32:51;;;;;;;21.90;10.60;;;;;;;4.39;82.62;99290.79;105219;1259;96696;-73
2024/03/06 09:35:18;;;;;;;25.30;11.00;;;;;;;4.41;82.75;99291.95;105362;1258;96600;-73
2024/03/06 09:37:46;;;;;;;26.50;12.50;;;;;;;4.42;82.65;99289.75;105394;1257;96677;-73
2024/03/06 09:40:23;;;;;;;26.80;13.20;;;;;;;4.42;82.71;99292.59;105365;1253;96686;-74
2024/03/06 09:42:51;;;;;;;20.60;10.40;;;;;;;4.43;82.81;99289.20;105495;1259;96612;-72
2024/03/06 09:45:19;;;;;;;26.20;11.50;;;;;;;4.46;82.78;99287.52;105545;1255;96686;-75
2024/03/06 09:47:50;;;;;;;27.20;12.80;;;;;;;4.49;82.75;99289.48;105585;1256;96679;-73
2024/03/06 09:50:22;;;;;;;38.60;15.30;;;;;;;4.50;82.85;99288.73;105452;1258;108328;-77
2024/03/06 09:52:51;;;;;;;27.50;14.30;;;;;;;4.52;82.82;99290.52;105547;1259;96725;-73
2024/03/06 09:55:19;;;;;;;33.00;15.00;;;;;;;4.57;82.72;99296.48;105631;1254;96641;-73
2024/03/06 09:57:46;;;;;;;24.90;14.00;;;;;;;4.56;82.84;99295.48;105537;1257;110544;-73
2024/03/06 10:00:14;;;;;;;26.90;13.10;;;;;;;4.56;82.76;99293.89;105392;1268;97535;-73
2024/03/06 10:02:54;;;;;;;33.30;15.00;;;;;;;4.56;82.79;99294.96;105821;1258;108358;-72
2024/03/06 10:05:22;;;;;;;30.00;13.70;;;;;;;4.56;82.90;99294.61;105365;1264;96580;-79
2024/03/06 10:07:51;;;;;;;24.10;11.40;;;;;;;4.58;82.75;99298.36;105412;1257;96607;-73
2024/03/06 10:10:22;;;;;;;24.80;10.80;;;;;;;4.60;82.78;99297.94;105402;1258;110879;-73
2024/03/06 10:12:50;;;;;;;26.30;12.20;;;;;;;4.59;82.77;99301.86;105297;1259;96801;-73
2024/03/06 10:15:17;;;;;;;23.10;10.30;;;;;;;4.58;82.82;99300.27;105607;1269;108140;-73
2024/03/06 10:17:48;;;;;;;24.20;12.50;;;;;;;4.61;82.92;99299.85;105507;1257;96685;-72
2024/03/06 10:20:23;;;;;;;23.00;11.70;;;;;;;4.62;82.95;99302.20;105096;1259;96689;-75
2024/03/06 10:22:51;;;;;;;19.80;9.60;;;;;;;4.66;83.11;99301.70;105695;1253;110252;-72
2024/03/06 10:25:25;;;;;;;27.90;13.20;;;;;;;4.71;82.97;99301.49;105163;1254;96630;-74
2024/03/06 10:28:11;;;;;;;25.20;12.30;;;;;;;4.72;83.00;99302.48;105466;1256;109985;-74
2024/03/06 10:30:44;;;;;;;28.20;13.30;;;;;;;4.74;82.96;99305.05;105148;1258;97931;-72
2024/03/06 10:33:13;;;;;;;24.80;12.80;;;;;;;4.77;83.08;99302.27;105228;1259;96677;-72
2024/03/06 10:35:41;;;;;;;25.50;11.70;;;;;;;4.81;83.06;99304.55;105334;1256;110102;-73
2024/03/06 10:38:10;;;;;;;21.70;10.10;;;;;;;4.84;83.18;99306.55;105315;1260;97924;-72
2024/03/06 10:40:40;;;;;;;24.90;11.80;;;;;;;4.87;83.17;99308.35;105434;1259;108113;-73
2024/03/06 10:43:08;;;;;;;19.00;9.90;;;;;;;4.89;83.13;99309.11;105382;1254;96657;-73
2024/03/06 10:45:48;;;;;;;24.20;11.90;;;;;;;4.93;82.93;99307.02;105414;1258;97995;-73
2024/03/06 10:48:17;;;;;;;30.50;13.40;;;;;;;4.96;83.21;99306.34;105325;1259;110792;-72
2024/03/06 10:50:47;;;;;;;28.30;12.20;;;;;;;5.01;83.09;99307.33;105477;1253;96584;-75
2024/03/06 10:53:16;;;;;;;31.30;13.80;;;;;;;5.05;83.08;99309.98;105586;1254;109007;-74
2024/03/06 10:55:50;;;;;;;26.90;14.10;;;;;;;5.06;83.02;99308.71;105268;1259;96606;-73
2024/03/06 10:58:19;;;;;;;30.90;15.80;;;;;;;5.09;82.93;99309.10;105359;1259;96786;-74
2024/03/06 11:03:38;;;;;;;27.10;12.90;;;;;;;5.20;83.18;99309.13;102287;1294;635780;-73
2024/03/06 11:06:07;;;;;;;22.00;11.10;;;;;;;5.23;83.09;99310.56;104637;1271;94563;-72
2024/03/06 11:08:34;;;;;;;24.50;13.30;;;;;;;5.26;83.05;99314.15;104640;1266;94381;-73
2024/03/06 11:11:24;;;;;;;24.60;12.60;;;;;;;5.28;83.13;99313.13;104642;1266;94295;-73
2024/03/06 11:13:57;;;;;;;25.60;11.70;;;;;;;5.30;83.13;99313.37;104654;1266;96298;-72
2024/03/06 11:16:33;;;;;;;31.10;14.00;;;;;;;5.33;83.13;99316.42;104431;1274;573150;-71
2024/03/06 11:19:08;;;;;;;26.00;11.70;;;;;;;5.35;83.00;99317.02;104634;1268;94355;-73
2024/03/06 11:21:46;;;;;;;23.60;12.00;;;;;;;5.35;82.96;99310.86;105048;1259;94916;-75
2024/03/06 11:24:15;;;;;;;23.30;11.20;;;;;;;5.38;83.07;99312.13;104962;1262;107401;-74
2024/03/06 11:26:46;;;;;;;26.10;11.90;;;;;;;5.44;83.18;99307.82;105027;1257;97336;-73
2024/03/06 11:29:18;;;;;;;23.10;10.60;;;;;;;5.52;83.24;99304.80;104895;1256;108375;-73